Meteo Giornale » Osservazioni meteo Canada » Winnipeg Intman
ore: 19:00 - Osservazioni Meteo Winnipeg Intman
Lat. 49° 54' N Lon. 97° 14' W Alt. 239 metri s.l.m.
22 °C
Coperto
Temp. 24 Ore
17 °C
25 °C
Ovest
53.7 Km/h
Dew point 13 °C
Umidità 56 %
Visibilità 24 Km
Il sole sorge alle ore 06:43
Il sole tramonta alle ore 20:15
| Data e Ora | Cielo e Fenomeni | T °C | DP °C | Um. % | Pres. hPa | Vis. km | Vento km/h | |
|---|---|---|---|---|---|---|---|---|
| Oggi h: 19:00 | Coperto | 22 | 13 | 56 | 1002 | 24 | O 53.7 | |
| Oggi h: 18:00 | Coperto | 23 | 13 | 53 | 1002 | 24 | O/SO 27.8 | |
| Oggi h: 17:00 | Coperto | 25 | 11 | 41 | 1001 | 24 | SO 48.1 | |
| Oggi h: 16:00 | Coperto | 24 | 11 | 43 | 1002 | 24 | SO 33.3 | |
| Oggi h: 15:00 | Coperto | 24 | 9 | 38 | 1002 | 24 | SO 46.3 | |
| Oggi h: 14:00 | Molto Nuvoloso | 25 | 10 | 38 | 1003 | 24 | S/SO 38.8 | |
| Oggi h: 13:00 | Poco Nuvoloso | 25 | 11 | 41 | 1004 | 24 | S/SO 46.3 | |
| Oggi h: 12:00 | Poco Nuvoloso | 25 | 14 | 50 | 1005 | 24 | S/SO 33.3 | |
| Oggi h: 11:00 | Poco Nuvoloso | 21 | 15 | 68 | 1006 | 24 | S/SO 22.2 | |
| Oggi h: 10:00 | Poco Nuvoloso | 20 | 15 | 72 | 1006 | 24 | SO 24 | |
| Oggi h: 09:00 | Sereno | 18 | 16 | 88 | 1006 | 24 | SO 14.8 | |
| Oggi h: 08:00 | Poco Nuvoloso | 17 | 16 | 93 | 1005 | 24 | O/SO 18.5 | |
| Oggi h: 07:00 | Poco Nuvoloso | 17 | 17 | 100 | 1005 | 24 | SO 14.8 | |
| Oggi h: 06:00 | Nuvoloso | 18 | 17 | 93 | 1004 | 24 | O/SO 14.8 | |
| Oggi h: 05:17 | Molto Nuvoloso | 19 | 18 | 93 | 1004 | 24 | O/SO 11.1 | |
| Oggi h: 05:00 | Coperto | 19 | 18 | 93 | 1004 | 24 | O/SO 13 | |
| Oggi h: 04:47 | Coperto | 19 | 19 | 100 | 1004 | 24 | O/SO 18.5 | |
| Oggi h: 04:27 | Pioviggine | 19 | 19 | 100 | 1003 | 6 | SO 14.8 | |
| Oggi h: 04:10 | Pioviggine | 19 | 19 | 100 | 1004 | 19 | S/SO 13 | |
| Oggi h: 04:00 | Coperto | 19 | 19 | 100 | 1003 | 24 | S 9.3 | |
| Oggi h: 03:46 | Coperto | 19 | 19 | 100 | 1004 | 24 | S 9.3 | |
| Oggi h: 03:36 | Pioviggine | 19 | 19 | 100 | 1004 | 5 | S 11.1 | |
| Oggi h: 03:18 | Pioviggine | 19 | 19 | 100 | 1004 | 2 | S/SE 7.4 | |
| Oggi h: 03:00 | Pioggia | 18 | 18 | 100 | 1004 | 22 | N 0 | |
| Oggi h: 02:33 | Pioggia | 18 | 18 | 100 | 1003 | 21 | O/NO 7.4 | |
| Oggi h: 02:09 | Pioggia | 18 | 18 | 100 | 1003 | 10 | E/NE 11.1 | |
| Oggi h: 02:00 | Pioggia | 18 | 18 | 100 | 1003 | 5 | N 5.5 | |
| Oggi h: 01:36 | Pioggia | 19 | 18 | 93 | 1005 | 8 | O 24 | |
| Oggi h: 01:29 | Pioggia | 20 | 19 | 93 | 1005 | 11 | O/SO 20.3 | |
| Oggi h: 01:19 | Pioggia | 20 | 19 | 93 | 1005 | 14 | S/SO 24 | |
| Oggi h: 01:00 | Temporale | 20 | 19 | 93 | 1005 | 13 | S 22.2 | |
| Oggi h: 00:44 | Temporale | 21 | 19 | 88 | 1004 | 13 | S 18.5 | |
| Oggi h: 00:36 | Temporale | 21 | 19 | 88 | 1004 | 14 | SE 24 | |
| Oggi h: 00:32 | Pioggia | 21 | 19 | 88 | 1004 | 24 | SE 20.3 | |
| Oggi h: 00:00 | Coperto | 21 | 19 | 88 | 1004 | 24 | SE 20.3 | |
| Ieri h: 23:44 | Coperto | 21 | 19 | 88 | 1004 | 24 | SE 25.9 | |
| Ieri h: 23:00 | Pioggia | 20 | 19 | 93 | 1005 | 24 | SE 14.8 | |
| Ieri h: 22:45 | Pioggia | 20 | 19 | 93 | 1006 | 13 | SE 22.2 | |
| Ieri h: 22:33 | Pioggia | 21 | 19 | 88 | 1006 | 19 | S/SE 27.8 | |
| Ieri h: 22:00 | Pioggia | 22 | 18 | 78 | 1006 | 21 | SE 31.5 | |
| Ieri h: 21:22 | Pioggia | 23 | 18 | 73 | 1006 | 24 | SE 24 | |
| Ieri h: 21:00 | Molto Nuvoloso | 23 | 18 | 73 | 1006 | 24 | E/SE 22.2 | |
| Ieri h: 20:00 | Molto Nuvoloso | 24 | 17 | 64 | 1007 | 24 | SE 27.8 | |



